Shamal Skanor — SIBN — position and weather

sailwx.info

Track history (hours):
 
Tides and Currents Weather Stations Pressure Air Temp Water Temp Dewpoint Dewpoint Depression Visibility Wind Speed Wind Dir Waves Ship Positions

Shamal Skanor

Last reported at 2014-Sep-10 08:33 UTC. Time now 2014-Sep-16 04:59 UTC.
Position N 55°25' E 012°49'.

Length 15 m.

Type: Pleasure craft. MMSI: 265684130.

Date/timePositionNaut miles runAvg speedWind from/ knotsBaromVisibWave heightAir tempDewpointWater temp
2014-Sep-10 08:33N 55°25' E 012°49'6 5.6
2014-Sep-10 07:33N 55°30' E 012°43'6 5.9
2014-Sep-10 06:33N 55°36' E 012°41'0 0.0
2014-Sep-08 14:33N 55°36' E 012°41'3 2.5
2014-Sep-08 13:34N 55°38' E 012°42'7 7.0
2014-Sep-08 12:33N 55°45' E 012°38'8 7.7
2014-Sep-08 11:33N 55°52' E 012°36'6 5.6
2014-Sep-08 10:33N 55°58' E 012°37'2 2.1
2014-Sep-08 09:33N 55°60' E 012°40'3 2.7
2014-Sep-08 08:33N 56°02' E 012°39'1 1.2
2014-Sep-08 07:31N 56°03' E 012°41'0 0.0
2014-Sep-08 06:31N 56°03' E 012°41'0 0.0
2014-Sep-07 14:12N 56°03' E 012°41'2 3.6
2014-Sep-07 13:33N 56°01' E 012°41'7 6.6
2014-Sep-07 12:33N 55°54' E 012°39'6 6.5
2014-Sep-07 11:33N 55°48' E 012°38'7 6.8
2014-Sep-07 10:33N 55°41' E 012°39'5 0.3
2014-Sep-06 14:33N 55°36' E 012°41'0 0.0
2014-Sep-06 13:33N 55°36' E 012°41'1 0.8
2014-Sep-06 12:32N 55°35' E 012°42'4 4.1
2014-Sep-06 11:33N 55°31' E 012°43'6 5.0
2014-Sep-06 10:27N 55°26' E 012°47'  
Track history (hours):
 
Tides and Currents Weather Stations Pressure Air Temp Water Temp Dewpoint Dewpoint Depression Visibility Wind Speed Wind Dir Waves Ship Positions

Shamal Skanor

Last reported at 2014-Sep-10 08:33 UTC. Time now 2014-Sep-16 04:59 UTC.
Position N 55°25' E 012°49'.

Length 15 m.

Type: Pleasure craft. MMSI: 265684130.

Date/timePositionNaut miles runAvg speedWind from/ knotsBaromVisibWave heightAir tempDewpointWater temp
2014-Sep-10 08:33N 55°25' E 012°49'6 5.6
2014-Sep-10 07:33N 55°30' E 012°43'6 5.9
2014-Sep-10 06:33N 55°36' E 012°41'0 0.0
2014-Sep-08 14:33N 55°36' E 012°41'3 2.5
2014-Sep-08 13:34N 55°38' E 012°42'7 7.0
2014-Sep-08 12:33N 55°45' E 012°38'8 7.7
2014-Sep-08 11:33N 55°52' E 012°36'6 5.6
2014-Sep-08 10:33N 55°58' E 012°37'2 2.1
2014-Sep-08 09:33N 55°60' E 012°40'3 2.7
2014-Sep-08 08:33N 56°02' E 012°39'1 1.2
2014-Sep-08 07:31N 56°03' E 012°41'0 0.0
2014-Sep-08 06:31N 56°03' E 012°41'0 0.0
2014-Sep-07 14:12N 56°03' E 012°41'2 3.6
2014-Sep-07 13:33N 56°01' E 012°41'7 6.6
2014-Sep-07 12:33N 55°54' E 012°39'6 6.5
2014-Sep-07 11:33N 55°48' E 012°38'7 6.8
2014-Sep-07 10:33N 55°41' E 012°39'5 0.3
2014-Sep-06 14:33N 55°36' E 012°41'0 0.0
2014-Sep-06 13:33N 55°36' E 012°41'1 0.8
2014-Sep-06 12:32N 55°35' E 012°42'4 4.1
2014-Sep-06 11:33N 55°31' E 012°43'6 5.0
2014-Sep-06 10:27N 55°26' E 012°47'  

Dump ship's entire track history